createdAt,value
2022-09-10T00:01:30.424Z,108522.72
2022-09-10T00:03:58.792Z,108203.06
2022-09-10T00:06:27.634Z,107855.13
2022-09-10T00:08:57.314Z,107548.50
2022-09-10T00:11:32.160Z,107294.44
2022-09-10T00:14:00.718Z,106898.50
2022-09-10T00:16:32.239Z,106232.34
2022-09-10T00:19:01.328Z,105613.69
2022-09-10T00:21:30.002Z,105124.91
2022-09-10T00:23:58.761Z,104588.44
2022-09-10T00:26:29.073Z,104340.59
2022-09-10T00:28:59.678Z,104268.88
2022-09-10T00:31:32.168Z,104177.31
2022-09-10T00:34:02.402Z,104251.91
2022-09-10T00:36:33.822Z,104346.16
2022-09-10T00:39:04.194Z,104383.59
2022-09-10T00:41:32.590Z,104483.50
2022-09-10T00:44:02.326Z,104518.13
2022-09-10T00:46:42.773Z,104546.00
2022-09-10T00:49:17.746Z,104514.13
2022-09-10T00:51:48.255Z,104508.75
2022-09-10T00:54:20.325Z,104463.56
2022-09-10T00:56:50.675Z,104458.88
2022-09-10T00:59:21.232Z,104430.91
2022-09-10T01:01:51.307Z,104442.78
2022-09-10T01:04:20.052Z,104493.44
2022-09-10T01:06:49.884Z,104563.22
2022-09-10T01:09:18.589Z,104637.72
2022-09-10T01:12:00.774Z,104640.31
2022-09-10T01:14:48.669Z,104574.16
2022-09-10T01:17:31.467Z,104616.63
2022-09-10T01:20:28.850Z,104606.81
2022-09-10T01:23:22.160Z,104560.59
2022-09-10T01:26:04.656Z,104559.69
2022-09-10T01:28:41.346Z,104567.78
2022-09-10T01:31:15.547Z,104582.38
2022-09-10T01:33:51.194Z,104623.16
2022-09-10T01:36:24.228Z,104619.56
2022-09-10T01:38:54.409Z,104671.41
2022-09-10T01:41:25.989Z,104754.03
2022-09-10T01:43:56.072Z,104823.03
2022-09-10T01:46:37.016Z,104861.16
2022-09-10T01:49:18.899Z,104803.03
2022-09-10T01:52:08.879Z,104753.34
2022-09-10T01:54:50.863Z,104738.78
2022-09-10T01:57:29.870Z,104800.44
2022-09-10T02:00:07.252Z,104862.16
2022-09-10T02:02:45.979Z,104885.84
2022-09-10T02:05:16.739Z,104833.97
2022-09-10T02:07:47.992Z,104845.69
2022-09-10T02:10:17.073Z,104837.69
2022-09-10T02:12:47.727Z,104816.78
2022-09-10T02:15:46.465Z,104811.28
2022-09-10T02:18:22.186Z,104803.81
2022-09-10T02:20:52.668Z,104762.13
2022-09-10T02:23:27.360Z,104731.34
2022-09-10T02:25:55.507Z,104758.47
2022-09-10T02:28:29.449Z,104727.53
2022-09-10T02:30:58.961Z,104713.03
2022-09-10T02:33:28.119Z,104799.44
2022-09-10T02:35:56.965Z,104972.81
2022-09-10T02:38:25.083Z,105158.16
2022-09-10T02:40:59.281Z,105347.88
2022-09-10T02:43:27.484Z,105520.38
2022-09-10T02:46:00.621Z,105702.88
2022-09-10T02:48:31.063Z,105898.97
2022-09-10T02:51:00.018Z,106090.53
2022-09-10T02:53:31.037Z,106293.91
2022-09-10T02:56:03.107Z,106455.47
2022-09-10T02:58:32.124Z,106627.91
2022-09-10T03:01:10.222Z,106813.13
2022-09-10T03:03:44.920Z,107017.44
2022-09-10T03:06:16.882Z,107177.16
2022-09-10T03:10:14.046Z,107393.22
2022-09-10T03:12:48.231Z,107655.56
2022-09-10T03:15:18.019Z,107864.69
2022-09-10T03:17:48.992Z,108001.28
2022-09-10T03:20:18.185Z,108146.81
2022-09-10T03:22:47.336Z,108346.75
2022-09-10T03:25:17.320Z,108480.81
2022-09-10T03:27:45.582Z,108641.97
2022-09-10T03:30:14.465Z,108716.91
2022-09-10T03:32:43.328Z,108843.25
2022-09-10T03:35:15.812Z,108930.22
2022-09-10T03:37:44.261Z,109060.53
2022-09-10T03:40:12.511Z,109130.31
2022-09-10T03:42:40.636Z,109189.16
2022-09-10T03:45:09.697Z,109268.50
2022-09-10T03:47:38.423Z,109376.84
2022-09-10T03:50:07.652Z,109468.06
2022-09-10T03:52:38.521Z,109554.94
2022-09-10T03:55:07.959Z,109659.63
2022-09-10T03:57:35.982Z,109734.09
2022-09-10T04:00:05.844Z,109771.41
2022-09-10T04:02:44.155Z,109760.13
2022-09-10T04:05:13.533Z,109845.47
2022-09-10T04:07:44.096Z,109912.97
2022-09-10T04:10:15.899Z,109988.03
2022-09-10T04:12:44.421Z,110016.75
2022-09-10T04:15:13.332Z,110066.69
2022-09-10T04:17:41.550Z,110096.69
2022-09-10T04:20:10.997Z,110146.34
2022-09-10T04:22:39.670Z,110161.78
2022-09-10T04:25:09.878Z,110148.56
2022-09-10T04:27:39.535Z,110211.59
2022-09-10T04:30:09.346Z,110310.59
2022-09-10T04:32:37.710Z,110231.19
2022-09-10T04:35:07.728Z,110291.91
2022-09-10T04:37:37.196Z,110273.97
2022-09-10T04:40:06.202Z,110296.75
2022-09-10T04:42:38.399Z,110302.81
2022-09-10T04:45:08.626Z,110339.19
2022-09-10T04:47:37.988Z,110372.53
2022-09-10T04:50:09.253Z,110323.31
2022-09-10T04:52:37.583Z,110406.91
2022-09-10T04:55:06.510Z,110466.69
2022-09-10T04:57:34.582Z,110510.16
2022-09-10T05:00:06.391Z,110566.09
2022-09-10T05:02:37.679Z,110599.75
2022-09-10T05:05:06.788Z,110651.31
2022-09-10T05:07:35.070Z,110739.63
2022-09-10T05:10:04.202Z,110822.38
2022-09-10T05:12:32.397Z,110851.06
2022-09-10T05:15:00.663Z,110877.28
2022-09-10T05:17:31.085Z,110889.47
2022-09-10T05:19:59.309Z,110976.28
2022-09-10T05:22:34.925Z,111029.41
2022-09-10T05:25:06.474Z,111066.63
2022-09-10T05:27:34.593Z,111094.34
2022-09-10T05:30:03.405Z,111116.16
2022-09-10T05:32:33.860Z,111094.47
2022-09-10T05:35:02.328Z,111096.31
2022-09-10T05:37:31.971Z,111167.41
2022-09-10T05:40:00.671Z,111145.88
2022-09-10T05:42:28.726Z,111166.03
2022-09-10T05:44:58.065Z,111126.88
2022-09-10T05:47:28.218Z,111109.31
2022-09-10T05:49:58.233Z,111068.03
2022-09-10T05:52:26.347Z,111018.19
2022-09-10T05:54:58.092Z,111028.28
2022-09-10T05:57:26.280Z,111025.09
2022-09-10T05:59:54.391Z,110995.22
2022-09-10T06:02:24.279Z,110975.91
2022-09-10T06:04:54.277Z,110860.31
2022-09-10T06:07:25.245Z,110979.94
2022-09-10T06:09:54.983Z,111029.88
2022-09-10T06:12:46.716Z,110976.03
2022-09-10T06:15:15.988Z,111058.59
2022-09-10T06:17:45.542Z,111042.44
2022-09-10T06:20:15.687Z,111163.88
2022-09-10T06:22:47.039Z,111189.69
2022-09-10T06:25:15.237Z,111245.41
2022-09-10T06:27:44.490Z,111282.22
2022-09-10T06:30:12.952Z,111081.91
2022-09-10T06:32:44.838Z,111040.50
2022-09-10T06:35:17.119Z,111023.38
2022-09-10T06:37:52.442Z,111035.59
2022-09-10T06:40:21.284Z,111068.91
2022-09-10T06:42:50.913Z,111026.56
2022-09-10T06:45:21.731Z,110891.75
2022-09-10T06:48:48.104Z,110926.84
2022-09-10T06:51:50.483Z,111023.75
2022-09-10T06:54:31.288Z,111013.03
2022-09-10T07:01:29.489Z,110956.41
2022-09-10T07:04:41.314Z,111011.88
2022-09-10T07:07:21.968Z,110999.78
2022-09-10T07:10:41.723Z,110924.97
2022-09-10T07:13:28.624Z,110931.84
2022-09-10T07:15:57.747Z,110987.16
2022-09-10T07:18:32.336Z,110944.31
2022-09-10T07:21:08.747Z,111003.75
2022-09-10T07:23:48.570Z,111031.38
2022-09-10T07:26:20.845Z,111018.34
2022-09-10T07:28:52.709Z,111018.22
2022-09-10T07:31:23.900Z,110927.03
2022-09-10T07:34:08.781Z,110925.59
2022-09-10T07:36:40.148Z,110911.59
2022-09-10T07:39:26.171Z,110665.13
2022-09-10T07:42:01.668Z,110964.38
2022-09-10T07:44:42.810Z,110954.75
2022-09-10T07:47:11.428Z,110980.63
2022-09-10T07:49:39.823Z,110960.38
2022-09-10T07:52:09.269Z,110991.84
2022-09-10T07:54:45.156Z,110880.75
2022-09-10T07:57:15.018Z,110880.97
2022-09-10T07:59:43.602Z,110881.72
2022-09-10T08:02:16.084Z,110842.56
2022-09-10T08:04:53.226Z,110805.06
2022-09-10T08:07:22.243Z,110897.88
2022-09-10T08:10:21.283Z,110596.34
2022-09-10T08:12:54.860Z,110618.84
2022-09-10T08:19:39.690Z,110338.94
2022-09-10T08:22:12.790Z,110145.44
2022-09-10T08:24:48.625Z,110382.91
2022-09-10T08:27:18.135Z,110283.75
2022-09-10T08:29:50.011Z,110396.69
2022-09-10T08:32:18.466Z,110453.84
2022-09-10T08:34:47.387Z,110466.69
2022-09-10T08:37:16.752Z,110494.38
2022-09-10T08:39:45.062Z,110411.88
2022-09-10T08:42:20.473Z,96690.00
2022-09-10T08:44:57.221Z,103441.16
2022-09-10T08:47:35.742Z,103887.91
2022-09-10T08:50:13.907Z,104204.56
2022-09-10T08:52:48.935Z,104420.56
2022-09-10T08:55:28.943Z,104535.06
2022-09-10T08:58:01.621Z,104582.25
2022-09-10T09:00:35.085Z,104665.47
2022-09-10T09:03:16.020Z,104362.13
2022-09-10T09:05:48.428Z,104514.06
2022-09-10T09:08:21.982Z,104600.34
2022-09-10T09:10:57.319Z,104624.28
2022-09-10T09:13:51.207Z,104576.91
2022-09-10T09:16:41.822Z,104415.31
2022-09-10T09:19:20.401Z,104466.16
2022-09-10T09:21:53.330Z,104630.66
2022-09-10T09:24:28.992Z,104672.47
2022-09-10T09:27:02.276Z,104574.44
2022-09-10T09:29:35.925Z,104510.38
2022-09-10T09:32:07.858Z,104513.53
2022-09-10T09:34:41.248Z,104686.91
2022-09-10T09:37:18.707Z,104752.38
2022-09-10T09:39:54.667Z,104799.72
2022-09-10T09:42:30.333Z,104805.44
2022-09-10T09:45:11.700Z,104756.59
2022-09-10T09:47:45.821Z,104809.16
2022-09-10T09:50:18.439Z,104822.66
2022-09-10T09:52:47.243Z,104859.69
2022-09-10T09:55:24.718Z,104728.94
2022-09-10T09:58:31.210Z,104736.25
2022-09-10T10:01:21.885Z,104692.81
2022-09-10T10:03:54.594Z,104693.84
2022-09-10T10:06:25.255Z,104707.53
2022-09-10T10:09:00.222Z,104703.84
2022-09-10T10:11:50.508Z,104571.38
2022-09-10T10:14:38.340Z,104483.09
2022-09-10T10:17:43.624Z,104318.03
2022-09-10T10:20:18.296Z,104450.63
2022-09-10T10:22:48.526Z,104537.63
2022-09-10T10:25:41.571Z,104475.78
2022-09-10T10:28:22.180Z,104589.06
2022-09-10T10:30:56.690Z,104615.22
2022-09-10T10:33:32.328Z,104666.94
2022-09-10T10:36:12.020Z,104601.38
2022-09-10T10:38:42.630Z,104619.59
2022-09-10T10:41:50.872Z,104581.06
2022-09-10T10:44:42.310Z,104627.63
2022-09-10T10:47:30.035Z,104642.75
2022-09-10T10:50:09.999Z,104634.41
2022-09-10T10:52:48.748Z,104680.22
2022-09-10T10:55:24.528Z,104674.88
2022-09-10T10:58:13.075Z,104711.25
2022-09-10T11:00:44.618Z,104771.94
2022-09-10T11:03:21.310Z,104767.25
2022-09-10T11:05:53.123Z,104746.47
2022-09-10T11:08:31.511Z,104766.47
2022-09-10T11:11:05.967Z,104817.84
2022-09-10T11:13:40.633Z,104759.03
2022-09-10T11:16:15.169Z,104752.94
2022-09-10T11:18:46.477Z,104707.50
2022-09-10T11:21:23.341Z,104707.22
2022-09-10T11:24:00.043Z,104732.50
2022-09-10T11:26:33.862Z,104730.53
2022-09-10T11:29:14.383Z,104710.50
2022-09-10T11:31:45.216Z,104707.44
2022-09-10T11:34:20.066Z,104677.59
2022-09-10T11:36:53.556Z,104615.09
2022-09-10T11:39:33.346Z,104566.91
2022-09-10T11:42:06.034Z,104545.06
2022-09-10T11:44:46.367Z,104517.03
2022-09-10T11:47:20.568Z,104548.19
2022-09-10T11:49:55.474Z,104502.97
2022-09-10T11:52:25.944Z,104455.00
2022-09-10T11:54:57.410Z,104415.91
2022-09-10T11:57:35.187Z,104438.25
2022-09-10T12:00:15.883Z,104400.28
2022-09-10T12:03:20.407Z,104358.41
2022-09-10T12:06:00.768Z,104305.09
2022-09-10T12:08:49.627Z,104263.34
2022-09-10T12:11:28.472Z,104251.22
2022-09-10T12:13:57.697Z,104236.00
2022-09-10T12:16:34.852Z,104170.88
2022-09-10T12:19:07.523Z,104156.25
2022-09-10T12:21:39.577Z,104129.34
2022-09-10T12:24:26.867Z,104147.16
2022-09-10T12:26:57.239Z,104160.56
2022-09-10T12:29:29.619Z,104098.25
2022-09-10T12:32:28.671Z,104109.75
2022-09-10T12:35:47.697Z,104115.06
2022-09-10T12:38:51.469Z,104025.53
2022-09-10T12:41:56.741Z,103907.69
2022-09-10T12:44:52.554Z,103849.72
2022-09-10T12:47:46.852Z,103835.13
2022-09-10T12:50:45.966Z,103837.28
2022-09-10T12:53:55.644Z,103866.22
2022-09-10T12:56:57.322Z,103896.50
2022-09-10T13:00:01.082Z,103889.25
2022-09-10T13:02:32.977Z,103911.16
2022-09-10T13:05:06.248Z,103887.69
2022-09-10T13:07:41.703Z,103887.09
2022-09-10T13:10:22.107Z,103956.38
2022-09-10T13:12:55.315Z,103960.19
2022-09-10T13:15:27.954Z,103943.97
2022-09-10T13:18:31.384Z,103989.97
2022-09-10T13:21:01.070Z,103997.41
2022-09-10T13:23:50.178Z,104019.25
2022-09-10T13:26:52.530Z,104004.34
2022-09-10T13:29:35.033Z,104038.28
2022-09-10T13:32:11.221Z,104088.31
2022-09-10T13:35:12.491Z,104118.41
2022-09-10T13:38:19.024Z,104121.56
2022-09-10T13:41:03.664Z,104141.72
2022-09-10T13:44:04.447Z,104144.09
2022-09-10T13:46:36.597Z,104112.31
2022-09-10T13:49:12.629Z,104054.31
2022-09-10T13:51:50.337Z,104006.56
2022-09-10T13:54:33.071Z,103982.22
2022-09-10T13:57:07.308Z,103971.53
2022-09-10T13:59:38.385Z,104038.41
2022-09-10T14:02:06.509Z,104045.78
2022-09-10T14:04:41.890Z,104040.31
2022-09-10T14:07:16.394Z,104018.66
2022-09-10T14:09:47.566Z,104044.72
2022-09-10T14:12:16.707Z,104001.81
2022-09-10T14:14:48.962Z,104114.06
2022-09-10T14:17:21.505Z,104137.88
2022-09-10T14:19:58.072Z,104161.44
2022-09-10T14:22:26.972Z,104182.38
2022-09-10T14:24:57.331Z,104143.56
2022-09-10T14:27:27.264Z,104188.06
2022-09-10T14:29:57.442Z,104222.50
2022-09-10T14:32:33.362Z,104255.38
2022-09-10T14:35:43.174Z,104302.34
2022-09-10T14:38:24.443Z,104298.78
2022-09-10T14:40:58.405Z,104382.63
2022-09-10T14:43:32.422Z,104404.22
2022-09-10T14:46:01.091Z,104435.19
2022-09-10T14:48:38.602Z,104452.72
2022-09-10T14:51:17.667Z,104450.03
2022-09-10T14:53:47.139Z,104402.09
2022-09-10T14:56:26.442Z,104382.09
2022-09-10T14:59:00.338Z,104377.25
2022-09-10T15:01:29.510Z,104309.06
2022-09-10T15:03:59.353Z,104325.25
2022-09-10T15:06:28.991Z,104325.09
2022-09-10T15:08:57.200Z,104226.78
2022-09-10T15:11:27.781Z,104240.31
2022-09-10T15:13:58.796Z,104163.19
2022-09-10T15:16:27.664Z,104075.00
2022-09-10T15:18:56.008Z,103969.53
2022-09-10T15:21:24.345Z,103903.88
2022-09-10T15:23:53.938Z,103760.88
2022-09-10T15:26:25.471Z,103601.38
2022-09-10T15:28:53.959Z,103425.00
2022-09-10T15:31:23.309Z,103225.25
2022-09-10T15:33:52.961Z,102919.47
2022-09-10T15:36:22.525Z,102725.25
2022-09-10T15:38:54.114Z,102398.31
2022-09-10T15:41:22.694Z,102165.25
2022-09-10T15:43:51.035Z,101968.63
2022-09-10T15:46:20.989Z,101669.22
2022-09-10T15:48:49.921Z,101443.50
2022-09-10T15:51:21.441Z,101350.75
2022-09-10T15:53:51.047Z,101338.09
2022-09-10T15:56:22.458Z,101295.31
2022-09-10T15:58:55.283Z,101206.19
2022-09-10T16:01:27.808Z,101219.50
2022-09-10T16:03:58.035Z,101038.19
2022-09-10T16:06:30.604Z,100786.16
2022-09-10T16:09:02.062Z,100602.25
2022-09-10T16:11:33.911Z,100598.81
2022-09-10T16:14:04.905Z,100653.94
2022-09-10T16:16:42.429Z,100679.91
2022-09-10T16:19:13.237Z,100628.69
2022-09-10T16:21:45.849Z,100519.28
2022-09-10T16:24:14.332Z,100234.63
2022-09-10T16:26:45.952Z,100060.19
2022-09-10T16:29:18.469Z,100006.00
2022-09-10T16:31:46.994Z,100041.69
2022-09-10T16:34:18.473Z,100156.19
2022-09-10T16:36:48.848Z,100320.53
2022-09-10T16:39:20.829Z,100508.69
2022-09-10T16:41:52.007Z,100648.06
2022-09-10T16:44:20.804Z,100680.22
2022-09-10T16:46:59.381Z,100566.66
2022-09-10T16:49:33.661Z,100452.13
2022-09-10T16:52:08.135Z,100463.34
2022-09-10T16:54:38.467Z,100142.50
2022-09-10T16:57:09.982Z,99934.88
2022-09-10T16:59:38.146Z,99891.88
2022-09-10T17:02:07.561Z,99878.59
2022-09-10T17:04:35.878Z,99888.97
2022-09-10T17:07:03.909Z,99901.72
2022-09-10T17:09:32.151Z,99851.94
2022-09-10T17:12:00.692Z,99898.72
2022-09-10T17:14:30.211Z,99778.69
2022-09-10T17:16:58.711Z,99675.53
2022-09-10T17:19:28.987Z,99601.03
2022-09-10T17:21:57.069Z,99412.13
2022-09-10T17:24:27.217Z,99259.50
2022-09-10T17:26:55.500Z,99090.25
2022-09-10T17:29:25.066Z,99019.13
2022-09-10T17:31:55.575Z,99032.59
2022-09-10T17:34:24.586Z,98995.34
2022-09-10T17:36:53.182Z,98946.88
2022-09-10T17:39:21.848Z,98982.06
2022-09-10T17:41:50.287Z,99102.38
2022-09-10T17:44:18.626Z,99238.88
2022-09-10T17:46:46.659Z,99359.03
2022-09-10T17:49:16.852Z,99497.06
2022-09-10T17:51:45.342Z,99612.75
2022-09-10T17:54:14.049Z,99734.78
2022-09-10T17:56:43.451Z,99847.59
2022-09-10T17:59:14.517Z,99950.88
2022-09-10T18:01:43.247Z,100026.56
2022-09-10T18:04:14.430Z,100156.63
2022-09-10T18:06:48.953Z,100257.81
2022-09-10T18:09:28.192Z,100386.09
2022-09-10T18:11:56.867Z,100496.19
2022-09-10T18:14:25.809Z,100569.53
2022-09-10T18:16:55.580Z,100620.09
2022-09-10T18:19:23.948Z,100628.69
2022-09-10T18:21:53.501Z,100724.88
2022-09-10T18:24:23.817Z,100853.59
2022-09-10T18:26:54.758Z,101030.00
2022-09-10T18:29:25.182Z,101204.94
2022-09-10T18:31:55.812Z,101351.38
2022-09-10T18:34:27.738Z,101503.13
2022-09-10T18:36:59.722Z,101657.22
2022-09-10T18:39:29.726Z,101783.00
2022-09-10T18:41:58.942Z,101931.25
2022-09-10T18:44:30.068Z,102059.44
2022-09-10T18:46:58.626Z,102209.47
2022-09-10T18:49:28.098Z,102332.44
2022-09-10T18:51:58.095Z,102455.28
2022-09-10T18:54:29.292Z,102539.06
2022-09-10T18:56:58.747Z,102627.41
2022-09-10T18:59:27.409Z,102592.69
2022-09-10T19:01:58.666Z,102591.47
2022-09-10T19:04:28.469Z,102649.03
2022-09-10T19:06:59.302Z,102721.28
2022-09-10T19:09:29.106Z,102757.75
2022-09-10T19:11:59.048Z,102756.06
2022-09-10T19:14:29.507Z,102755.56
2022-09-10T19:17:02.365Z,102798.63
2022-09-10T19:19:32.621Z,102858.63
2022-09-10T19:22:07.003Z,102903.25
2022-09-10T19:27:23.653Z,103039.00
2022-09-10T19:29:52.282Z,103116.47
2022-09-10T19:32:21.099Z,103181.53
2022-09-10T19:34:50.602Z,103199.00
2022-09-10T19:37:20.887Z,103237.28
2022-09-10T19:39:49.115Z,103291.91
2022-09-10T19:42:17.296Z,103351.28
2022-09-10T19:44:45.261Z,103431.50
2022-09-10T19:47:13.387Z,103470.94
2022-09-10T19:49:41.430Z,103605.47
2022-09-10T19:52:14.916Z,103782.72
2022-09-10T19:54:44.338Z,103894.84
2022-09-10T19:57:12.599Z,103977.53
2022-09-10T19:59:40.916Z,103959.50
2022-09-10T20:02:10.806Z,104033.16
2022-09-10T20:04:38.908Z,104011.41
2022-09-10T20:07:07.424Z,103884.22
2022-09-10T20:09:39.702Z,104043.31
2022-09-10T20:12:10.853Z,104109.66
2022-09-10T20:14:39.053Z,104036.13
2022-09-10T20:17:07.281Z,104203.44
2022-09-10T20:19:35.678Z,104170.72
2022-09-10T20:22:04.346Z,104276.34
2022-09-10T20:24:32.412Z,104320.75
2022-09-10T20:27:00.669Z,104145.50
2022-09-10T20:29:33.106Z,104345.56
2022-09-10T20:32:01.588Z,104336.41
2022-09-10T20:34:31.363Z,104411.94
2022-09-10T20:36:59.968Z,104423.81
2022-09-10T20:39:28.127Z,104391.16
2022-09-10T20:41:56.188Z,104422.97
2022-09-10T20:44:24.110Z,104118.25
2022-09-10T20:46:53.539Z,104463.88
2022-09-10T20:49:21.561Z,104587.34
2022-09-10T20:51:49.569Z,104712.66
2022-09-10T20:54:19.085Z,104766.53
2022-09-10T20:56:47.455Z,104803.91
2022-09-10T20:59:16.869Z,104847.53
2022-09-10T21:01:47.025Z,104979.38
2022-09-10T21:04:16.466Z,104958.56
2022-09-10T21:06:44.497Z,104999.50
2022-09-10T21:09:13.510Z,105057.59
2022-09-10T21:11:43.529Z,105089.41
2022-09-10T21:14:13.374Z,105065.78
2022-09-10T21:16:43.177Z,105085.78
2022-09-10T21:19:13.748Z,104761.19
2022-09-10T21:21:45.724Z,104963.00
2022-09-10T21:24:16.620Z,105083.88
2022-09-10T21:26:45.307Z,105105.69
2022-09-10T21:29:15.047Z,105139.34
2022-09-10T21:31:43.749Z,105037.56
2022-09-10T21:34:12.057Z,105552.19
2022-09-10T21:36:41.090Z,105517.63
2022-09-10T21:39:13.958Z,105566.81
2022-09-10T21:41:44.026Z,105660.44
2022-09-10T21:44:14.116Z,105544.06
2022-09-10T21:46:42.709Z,105539.56
2022-09-10T21:49:11.084Z,105285.09
2022-09-10T21:51:39.103Z,105324.97
2022-09-10T21:54:07.470Z,105259.59
2022-09-10T21:56:36.839Z,105205.97
2022-09-10T21:59:04.801Z,105077.88
2022-09-10T22:01:33.545Z,105198.69
2022-09-10T22:04:02.255Z,105222.47
2022-09-10T22:06:31.678Z,105310.63
2022-09-10T22:09:01.508Z,105343.38
2022-09-10T22:11:31.547Z,105238.88
2022-09-10T22:14:04.800Z,105271.66
2022-09-10T22:16:34.716Z,105382.53
2022-09-10T22:19:05.445Z,105350.78
2022-09-10T22:21:33.764Z,105338.97
2022-09-10T22:24:01.702Z,105383.47
2022-09-10T22:26:29.803Z,105328.06
2022-09-10T22:29:00.822Z,105360.72
2022-09-10T22:31:31.476Z,105386.22
2022-09-10T22:34:01.503Z,105284.59
2022-09-10T22:36:31.974Z,105329.00
2022-09-10T22:39:01.635Z,105278.19
2022-09-10T22:41:31.676Z,105186.38
2022-09-10T22:44:01.605Z,105248.03
2022-09-10T22:46:30.626Z,105328.94
2022-09-10T22:48:59.275Z,105433.53
2022-09-10T22:51:29.571Z,105503.44
2022-09-10T22:53:59.052Z,105385.31
2022-09-10T22:56:28.363Z,105428.00
2022-09-10T22:58:57.923Z,105372.63
2022-09-10T23:01:28.944Z,105400.75
2022-09-10T23:03:57.882Z,105306.28
2022-09-10T23:06:28.314Z,105384.38
2022-09-10T23:09:02.317Z,105342.69
2022-09-10T23:11:32.088Z,105389.94
2022-09-10T23:14:02.195Z,105389.13
2022-09-10T23:16:34.204Z,105382.69
2022-09-10T23:19:03.878Z,105204.69
2022-09-10T23:21:36.642Z,105241.94
2022-09-10T23:24:07.358Z,105245.59
2022-09-10T23:26:38.257Z,105260.22
2022-09-10T23:29:06.569Z,105218.44
2022-09-10T23:31:37.967Z,105232.13
2022-09-10T23:34:07.882Z,104518.19
2022-09-10T23:36:37.370Z,104727.13
2022-09-10T23:39:08.000Z,104817.06
2022-09-10T23:41:36.874Z,105012.50
2022-09-10T23:44:05.034Z,104933.44
2022-09-10T23:46:34.032Z,106963.63
2022-09-10T23:49:03.930Z,107236.94
2022-09-10T23:51:31.904Z,107552.31
2022-09-10T23:53:59.789Z,107710.44
2022-09-10T23:56:28.575Z,107824.78
2022-09-10T23:58:58.041Z,107910.09
